Aérodrome :
LOGIN :

S'inscrire | Disclaimer

   EN    FR    IT 

 










Légende :    VFR   VFR Marginal   IFR   IFR Intensif   IFR Très Intensif
Visi : 
Plafond : 
>= 8 km
>= 3000ft
5 à 8 km
1000 à 3000 ft
1500m à 5 km
500 à 1000 ft
800 à 1500m
200 à 500 ft
< 800m
< 200 ft
Symboles :   Orages  Brouillard  Fortes neiges  Fortes précipitations  Vent > 20 kt
SIGMETs :   Divers  Orages  Givrage  Turbulence  Onde Orograph.  Cendres Volcan.







- Altitude de l'aérodrome : 1475 ft


LSZC - Buochs Stans

DERNIER METAR :
  • 212350Z AUTO VRB03KT 3200 -SN BKN/// 01/01 Q1015

METARs EXPIRÉS :
  • 212320Z AUTO VRB02KT 2300 -SN BKN/// 01/00 Q1016
  • 212250Z AUTO VRB01KT 2700 -SN BKN/// 00/00 Q1016
  • 212220Z AUTO VRB02KT 1900 SN BKN/// 00/00 Q1017
  • 212150Z AUTO VRB01KT 1000 SN BKN/// 00/M00 Q1017
  • 212120Z AUTO VRB01KT 2000 SN BKN/// 00/M00 Q1017

Prévision TAF périmée.
Pas de NOTAMs connus pour ce terrain.
1 SIGMET publié pour la FIR Switzerland (LSAS) :
 
Givrage fort
LSAS SIGMET 9 VALID 220000/220200 LSZH
LSAS SWITZERLAND FIR SEV ICE FCST NW OF LINE N4526 E00706 - N4709 E01028 3000FT/FL180 MOV E NC=



MET'MAP, la Météo Aéronautique d'un coup d'oeil ! - Copyright ORBIFLY Décembre 2007 - Disclaimer

ORBIFLY MET'MAP TEAM :

Programmation & Développement : Alexandra Zaïnal
Conception & Développement : Baudouin d'Aumeries
Co-Programmation & Développement : Marc-Olivier Méhu
Soutien technique & logistique : Manuel Goepfert

Contact : metmap@orbifly.com




SOURCES & CREDITS :

   NOAA